Time;durP1;ratioP1;P1;durP2;ratioP2;P2;SDS_P1;SDS_P2;PMS_P1;PMS_P2;Temp;Humidity;BMP_temperature;BMP_pressure;BME280_temperature;BME280_humidity;BME280_pressure;Samples;Min_cycle;Max_cycle;Signal;HPM_P1;HPM_P2
2022/03/22 00:00:25;;;;;;;4.70;2.77;;;;;;;17.20;41.14;101679.39;1850443;77;21204;-64
2022/03/22 00:02:52;;;;;;;3.67;3.02;;;;;;;17.20;41.17;101684.77;1850616;77;21037;-64
2022/03/22 00:05:19;;;;;;;3.52;2.60;;;;;;;17.19;41.18;101681.73;1850507;77;21022;-64
2022/03/22 00:07:45;;;;;;;4.10;2.85;;;;;;;17.18;41.20;101681.41;1850674;77;20986;-63
2022/03/22 00:10:12;;;;;;;3.65;2.95;;;;;;;17.16;41.19;101684.25;1851168;77;21035;-64
2022/03/22 00:12:41;;;;;;;2.90;2.62;;;;;;;17.14;41.20;101684.09;1860166;77;21026;-64
2022/03/22 00:15:10;;;;;;;3.40;2.67;;;;;;;17.13;41.21;101681.05;1844717;77;21001;-64
2022/03/22 00:17:37;;;;;;;3.62;2.77;;;;;;;17.12;41.21;101679.38;1819943;78;21017;-64
2022/03/22 00:20:07;;;;;;;2.98;2.33;;;;;;;17.11;41.23;101678.52;1815252;79;21119;-64
2022/03/22 00:22:35;;;;;;;3.67;2.83;;;;;;;17.09;41.25;101679.19;1815592;79;21071;-64
2022/03/22 00:25:05;;;;;;;3.47;3.17;;;;;;;17.08;41.24;101675.67;1815451;79;22034;-64
2022/03/22 00:27:50;;;;;;;3.27;2.42;;;;;;;17.07;41.26;101674.00;1815049;79;21579;-64
2022/03/22 00:30:00;;;;;;;3.58;2.90;;;;;;;17.06;41.30;101676.34;1811482;78;20994;-63
2022/03/22 00:32:26;;;;;;;3.00;2.67;;;;;;;17.05;41.26;101677.33;1829550;77;21069;-64
2022/03/22 00:34:53;;;;;;;4.53;2.75;;;;;;;17.04;41.29;101668.13;1838477;78;20991;-64
2022/03/22 00:37:20;;;;;;;3.05;2.37;;;;;;;17.03;41.28;101671.28;1838441;78;21223;-64
2022/03/22 00:39:46;;;;;;;3.15;2.65;;;;;;;17.02;41.31;101664.76;1767631;81;21039;-64
2022/03/22 00:42:14;;;;;;;3.25;2.65;;;;;;;17.00;41.31;101668.94;1767203;81;21569;-64
2022/03/22 00:44:41;;;;;;;3.90;3.05;;;;;;;17.00;41.32;101660.06;1767306;81;21478;-64
2022/03/22 00:47:09;;;;;;;4.42;2.92;;;;;;;16.98;41.32;101660.69;1777025;80;21081;-64
2022/03/22 00:49:36;;;;;;;4.03;2.90;;;;;;;16.97;41.33;101661.72;1756856;80;21195;-64
2022/03/22 00:52:04;;;;;;;3.45;2.75;;;;;;;16.96;41.34;101657.33;1746298;82;21077;-63
2022/03/22 00:54:33;;;;;;;3.47;2.80;;;;;;;16.95;41.37;101652.47;1746310;82;21521;-64
2022/03/22 00:57:01;;;;;;;4.03;3.10;;;;;;;16.94;41.35;101656.66;1746408;82;21025;-64
2022/03/22 01:02:13;;;;;;;3.98;2.65;;;;;;;16.92;41.39;101648.80;1746396;82;21494;-64
2022/03/22 01:04:43;;;;;;;2.98;2.60;;;;;;;16.90;41.39;101649.42;1746264;82;21507;-65
2022/03/22 01:07:09;;;;;;;4.25;2.90;;;;;;;16.89;41.41;101645.08;1747264;80;21053;-64
2022/03/22 01:09:38;;;;;;;4.12;3.17;;;;;;;16.88;41.41;101648.75;1746320;82;21030;-64
2022/03/22 01:12:06;;;;;;;3.22;2.55;;;;;;;16.87;41.42;101647.09;1746365;82;21610;-64
2022/03/22 01:14:33;;;;;;;3.67;2.98;;;;;;;16.86;41.42;101652.10;1749235;80;21884;-64
2022/03/22 01:17:00;;;;;;;5.00;3.45;;;;;;;16.84;41.43;101650.95;1774881;80;21569;-63
2022/03/22 01:19:27;;;;;;;4.20;3.22;;;;;;;16.83;41.45;101652.45;1777250;80;21097;-64
2022/03/22 01:21:55;;;;;;;3.50;3.17;;;;;;;16.82;41.45;101661.48;1777125;80;21027;-64
2022/03/22 01:24:23;;;;;;;3.52;2.80;;;;;;;16.81;41.45;101660.63;1776539;80;21616;-63
2022/03/22 01:26:51;;;;;;;4.47;3.12;;;;;;;16.80;41.47;101654.07;1777155;80;22100;-65
2022/03/22 01:29:17;;;;;;;3.12;2.83;;;;;;;16.78;41.49;101660.10;1776908;80;20987;-64
2022/03/22 01:31:44;;;;;;;3.77;3.00;;;;;;;16.77;41.49;101659.78;1777103;80;21026;-64
2022/03/22 01:34:12;;;;;;;3.10;2.80;;;;;;;16.76;41.49;101657.58;1776971;80;21016;-64
2022/03/22 01:36:39;;;;;;;3.47;3.15;;;;;;;16.75;41.50;101659.94;1777108;80;21137;-64
2022/03/22 01:39:05;;;;;;;3.20;2.77;;;;;;;16.74;41.51;101664.12;1776068;80;21265;-64
2022/03/22 01:41:34;;;;;;;3.12;2.70;;;;;;;16.73;41.51;101667.78;1776799;80;21050;-64
2022/03/22 01:44:01;;;;;;;4.12;3.30;;;;;;;16.72;41.51;101664.27;1777120;80;21026;-64
2022/03/22 01:46:29;;;;;;;3.65;2.85;;;;;;;16.71;41.55;101663.95;1776963;80;21035;-64
2022/03/22 01:48:56;;;;;;;3.00;2.65;;;;;;;16.69;41.53;101665.45;1776969;80;21016;-64
2022/03/22 01:51:22;;;;;;;5.00;3.12;;;;;;;16.69;41.52;101667.30;1776856;80;21128;-65
2022/03/22 01:53:50;;;;;;;3.52;2.67;;;;;;;16.68;41.54;101664.26;1777106;80;21571;-65
2022/03/22 01:56:16;;;;;;;3.20;2.80;;;;;;;16.67;41.58;101664.77;1775478;80;21499;-63
2022/03/22 01:58:43;;;;;;;3.50;3.08;;;;;;;16.66;41.56;101667.09;1764395;81;20988;-64
2022/03/22 02:06:40;;;;;;;3.10;2.60;;;;;;;16.62;41.58;101659.03;1834234;78;21231;-65
2022/03/22 02:09:07;;;;;;;4.33;3.05;;;;;;;16.61;41.62;101661.39;1813330;78;21021;-64
2022/03/22 02:11:35;;;;;;;3.70;2.80;;;;;;;16.59;41.62;101660.72;1834483;78;21127;-64
2022/03/22 02:14:01;;;;;;;3.60;2.90;;;;;;;16.57;41.65;101654.64;1836771;78;20991;-63
2022/03/22 02:16:28;;;;;;;3.95;2.75;;;;;;;16.57;41.65;101665.38;1839846;77;21207;-64
2022/03/22 02:18:56;;;;;;;3.25;2.67;;;;;;;16.55;41.67;101660.67;1839763;77;21011;-64
2022/03/22 02:21:23;;;;;;;4.33;3.33;;;;;;;16.54;41.66;101664.88;1829126;77;21021;-64
2022/03/22 02:23:58;;;;;;;4.53;3.25;;;;;;;16.54;41.67;101671.08;1835469;77;21013;-65
2022/03/22 02:26:26;;;;;;;5.25;3.50;;;;;;;16.53;41.71;101668.04;1847797;77;21041;-64
2022/03/22 02:28:54;;;;;;;3.12;2.62;;;;;;;16.52;41.69;101666.38;1847793;77;21235;-64
2022/03/22 02:31:22;;;;;;;4.87;3.42;;;;;;;16.50;41.70;101671.06;1842929;77;21053;-63
2022/03/22 02:33:50;;;;;;;4.20;3.08;;;;;;;16.49;41.72;101671.54;1839812;78;20983;-64
2022/03/22 02:36:16;;;;;;;3.75;3.27;;;;;;;16.48;41.71;101674.41;1839752;78;21006;-63
2022/03/22 02:38:44;;;;;;;4.20;3.40;;;;;;;16.47;41.75;101668.69;1839800;78;21008;-63
2022/03/22 02:41:22;;;;;;;3.75;2.98;;;;;;;16.46;41.73;101669.70;1839783;78;21869;-64
2022/03/22 02:43:48;;;;;;;4.22;3.40;;;;;;;16.45;41.76;101674.20;1839923;77;21065;-64
2022/03/22 02:46:15;;;;;;;4.28;3.52;;;;;;;16.45;41.77;101678.73;1843597;77;21034;-64
2022/03/22 02:48:42;;;;;;;4.42;2.92;;;;;;;16.42;41.77;101673.20;1841933;77;21487;-64
2022/03/22 02:51:11;;;;;;;4.87;3.80;;;;;;;16.42;41.78;101671.86;1839994;77;21491;-64
2022/03/22 02:53:38;;;;;;;3.20;2.90;;;;;;;16.41;41.79;101671.50;1839801;77;21878;-64
2022/03/22 02:56:05;;;;;;;5.20;3.62;;;;;;;16.39;41.81;101670.82;1839708;77;21053;-64
2022/03/22 02:58:33;;;;;;;3.50;2.70;;;;;;;16.39;41.82;101676.19;1839654;78;21002;-64
2022/03/22 03:01:01;;;;;;;4.50;3.42;;;;;;;16.38;41.82;101668.30;1839773;78;20979;-64
2022/03/22 03:03:29;;;;;;;3.60;3.30;;;;;;;16.36;41.83;101667.14;1839800;77;21065;-64
2022/03/22 03:05:55;;;;;;;5.22;3.12;;;;;;;16.36;41.85;101669.81;1845939;77;21130;-65
2022/03/22 03:08:26;;;;;;;4.25;3.50;;;;;;;16.34;41.85;101668.27;1847737;77;21006;-64
2022/03/22 03:10:51;;;;;;;3.90;3.33;;;;;;;16.34;41.88;101668.27;1847590;77;21061;-64
2022/03/22 03:13:17;;;;;;;3.12;2.83;;;;;;;16.34;41.88;101677.66;1847645;77;20994;-65
2022/03/22 03:15:47;;;;;;;4.20;3.25;;;;;;;16.32;41.88;101675.13;1847826;77;20983;-63
2022/03/22 03:18:14;;;;;;;4.78;3.70;;;;;;;16.29;41.89;101670.94;1842408;77;22296;-63
2022/03/22 03:20:42;;;;;;;4.53;3.40;;;;;;;16.29;41.91;101676.81;1837112;77;20974;-64
2022/03/22 03:23:08;;;;;;;3.62;2.90;;;;;;;16.28;41.92;101681.34;1836013;78;21014;-64
2022/03/22 03:25:37;;;;;;;4.67;3.30;;;;;;;16.27;41.93;101677.47;1837234;77;21057;-65
2022/03/22 03:28:04;;;;;;;4.10;3.40;;;;;;;16.26;41.91;101670.41;1834798;77;21108;-64
2022/03/22 03:30:31;;;;;;;4.15;3.42;;;;;;;16.24;41.92;101671.90;1804460;79;21476;-63
2022/03/22 03:32:57;;;;;;;3.65;2.95;;;;;;;16.24;41.94;101673.75;1804272;79;21513;-64
2022/03/22 03:35:24;;;;;;;5.55;3.20;;;;;;;16.22;41.96;101672.56;1804241;79;21006;-64
2022/03/22 03:37:51;;;;;;;4.30;3.37;;;;;;;16.21;41.97;101677.59;1804127;79;21014;-64
2022/03/22 03:40:18;;;;;;;4.70;3.22;;;;;;;16.21;41.98;101685.64;1805244;78;21542;-64
2022/03/22 03:42:45;;;;;;;4.80;3.20;;;;;;;16.20;41.99;101687.97;1804201;79;21270;-64
2022/03/22 03:47:58;;;;;;;5.15;3.90;;;;;;;16.18;42.00;101697.18;1837181;78;21093;-64
2022/03/22 03:50:25;;;;;;;3.92;3.02;;;;;;;16.16;42.00;101692.47;1837068;78;21069;-63
2022/03/22 03:52:53;;;;;;;4.28;3.58;;;;;;;16.15;42.02;101691.64;1837123;78;20994;-65
2022/03/22 03:55:20;;;;;;;5.12;2.95;;;;;;;16.14;42.03;101694.47;1836102;78;22041;-64
2022/03/22 03:57:48;;;;;;;4.45;3.22;;;;;;;16.11;42.03;101692.45;1837413;78;21087;-64
2022/03/22 04:00:17;;;;;;;4.08;3.17;;;;;;;16.11;42.04;101696.47;1836991;78;21224;-64
2022/03/22 04:02:46;;;;;;;3.85;3.25;;;;;;;16.10;42.05;101692.59;1837051;78;21060;-65
2022/03/22 04:05:14;;;;;;;3.67;3.30;;;;;;;16.09;42.08;101699.81;1837241;78;21001;-64
2022/03/22 04:07:41;;;;;;;4.42;3.62;;;;;;;16.08;42.10;101702.64;1837355;78;21210;-63
2022/03/22 04:10:08;;;;;;;4.47;3.22;;;;;;;16.07;42.11;101699.60;1837250;78;20974;-64
2022/03/22 04:12:42;;;;;;;5.00;3.52;;;;;;;16.07;42.12;101699.60;1836123;78;21473;-65
2022/03/22 04:15:10;;;;;;;3.70;3.37;;;;;;;16.07;42.11;101703.63;1837265;78;21057;-64
2022/03/22 04:17:38;;;;;;;4.78;3.30;;;;;;;16.05;42.13;101705.63;1837651;77;21077;-65
2022/03/22 04:20:07;;;;;;;4.10;3.20;;;;;;;16.04;42.13;101701.27;1847890;77;21201;-63
2022/03/22 04:22:35;;;;;;;4.40;3.50;;;;;;;16.04;42.14;101699.94;1847756;77;21607;-64
2022/03/22 04:25:04;;;;;;;4.90;3.52;;;;;;;16.03;42.14;101708.95;1847863;77;21044;-64
2022/03/22 04:32:49;;;;;;;5.05;3.40;;;;;;;16.00;42.20;101717.33;1805520;77;21116;-66
2022/03/22 04:35:19;;;;;;;4.20;3.65;;;;;;;15.99;42.19;101723.67;1824478;77;21026;-64
2022/03/22 04:37:47;;;;;;;4.83;4.22;;;;;;;15.99;42.23;101731.72;1847431;77;21002;-64
2022/03/22 04:40:15;;;;;;;4.33;3.65;;;;;;;15.99;42.23;101731.72;1847880;77;21049;-63
2022/03/22 04:42:42;;;;;;;5.83;3.87;;;;;;;15.97;42.25;101731.03;1847855;77;20998;-64
2022/03/22 04:45:10;;;;;;;5.62;3.80;;;;;;;15.97;42.25;101731.87;1847873;77;21141;-64
2022/03/22 04:47:36;;;;;;;4.20;3.60;;;;;;;15.97;42.26;101735.89;1847268;77;21045;-64
2022/03/22 04:50:07;;;;;;;5.08;4.40;;;;;;;15.97;42.27;101731.03;1847876;77;21490;-64
2022/03/22 04:58:07;;;;;;;5.78;4.25;;;;;;;15.96;42.31;101741.42;1847889;77;21132;-65
2022/03/22 05:00:34;;;;;;;4.83;3.80;;;;;;;15.95;42.33;101740.56;1847729;77;20979;-64
2022/03/22 05:03:07;;;;;;;5.00;4.00;;;;;;;15.95;42.36;101743.24;1846633;77;21030;-64
2022/03/22 05:08:45;;;;;;;5.10;4.40;;;;;;;15.95;42.39;101736.54;1780260;80;21073;-63
2022/03/22 05:11:13;;;;;;;4.40;3.83;;;;;;;15.95;42.40;101745.09;1780264;80;21483;-64
2022/03/22 05:13:40;;;;;;;5.42;4.30;;;;;;;15.94;42.42;101740.23;1780256;80;20987;-64
2022/03/22 05:16:06;;;;;;;5.70;4.33;;;;;;;15.95;42.44;101733.86;1780362;80;21502;-64
2022/03/22 05:18:36;;;;;;;5.45;4.30;;;;;;;15.96;42.44;101738.75;1780063;80;21533;-64
2022/03/22 05:21:04;;;;;;;4.37;3.60;;;;;;;15.96;42.44;101740.92;1767305;80;21053;-65
2022/03/22 05:23:31;;;;;;;5.25;3.95;;;;;;;15.96;42.45;101740.92;1749221;82;22238;-64
2022/03/22 05:25:57;;;;;;;6.37;4.40;;;;;;;15.98;42.46;101735.41;1749322;82;21049;-63
2022/03/22 05:28:24;;;;;;;5.20;4.25;;;;;;;15.98;42.45;101744.28;1758358;80;20984;-64
2022/03/22 05:30:51;;;;;;;5.12;3.75;;;;;;;16.00;42.45;101749.50;1780262;80;21034;-65
2022/03/22 05:33:18;;;;;;;5.20;4.12;;;;;;;16.01;42.47;101753.84;1780148;80;21087;-64
2022/03/22 05:35:45;;;;;;;4.83;3.70;;;;;;;16.02;42.47;101760.41;1780201;80;22302;-64
2022/03/22 05:38:11;;;;;;;4.30;3.80;;;;;;;16.02;42.47;101759.06;1778976;80;21533;-64
2022/03/22 05:40:39;;;;;;;5.37;4.22;;;;;;;16.03;42.47;101756.73;1780201;80;21474;-66
2022/03/22 05:43:07;;;;;;;4.97;4.12;;;;;;;16.05;42.48;101760.58;1780231;80;21003;-65
2022/03/22 05:45:33;;;;;;;5.45;3.85;;;;;;;16.06;42.48;101757.75;1780162;80;21049;-64
2022/03/22 05:48:01;;;;;;;5.80;4.10;;;;;;;16.08;42.47;101760.28;1780160;80;22267;-63
2022/03/22 05:50:29;;;;;;;4.67;3.83;;;;;;;16.09;42.46;101766.84;1780159;80;21069;-63
2022/03/22 05:52:55;;;;;;;5.92;4.30;;;;;;;16.10;42.46;101763.64;1780316;80;20990;-64
2022/03/22 05:55:22;;;;;;;5.00;3.80;;;;;;;16.11;42.46;101769.37;1762800;80;21081;-65
2022/03/22 05:57:49;;;;;;;5.10;4.30;;;;;;;16.12;42.47;101769.19;1749360;82;21073;-64
2022/03/22 06:00:18;;;;;;;5.47;4.58;;;;;;;16.15;42.48;101767.19;1749324;82;21226;-64
2022/03/22 06:02:45;;;;;;;6.62;3.98;;;;;;;16.16;42.47;101768.38;1749595;82;21045;-64
2022/03/22 06:05:13;;;;;;;6.97;4.25;;;;;;;16.18;42.47;101785.66;1749524;82;21077;-64
2022/03/22 06:07:41;;;;;;;5.67;4.37;;;;;;;16.18;42.48;101780.30;1749312;80;21049;-64
2022/03/22 06:10:09;;;;;;;4.97;3.95;;;;;;;16.20;42.47;101774.28;1749373;82;21025;-64
2022/03/22 06:12:51;;;;;;;5.15;4.03;;;;;;;16.20;42.49;101771.09;1750352;80;21490;-64
2022/03/22 06:15:23;;;;;;;5.65;4.50;;;;;;;16.22;42.48;101777.14;1749158;82;20997;-63
2022/03/22 06:17:53;;;;;;;7.40;3.87;;;;;;;16.21;42.47;101775.47;1749274;82;21079;-65
2022/03/22 06:20:20;;;;;;;5.45;4.08;;;;;;;16.23;42.50;101778.01;1748068;82;21482;-64
2022/03/22 06:22:48;;;;;;;5.17;4.35;;;;;;;16.24;42.51;101787.21;1749315;82;21089;-63
2022/03/22 06:25:14;;;;;;;5.03;4.00;;;;;;;16.25;42.53;101795.62;1749209;82;21220;-64
2022/03/22 06:27:42;;;;;;;5.30;4.17;;;;;;;16.28;42.54;101793.11;1749400;82;21033;-64
2022/03/22 06:30:10;;;;;;;5.30;4.65;;;;;;;16.28;42.54;101790.43;1750346;80;21061;-64
2022/03/22 06:32:57;;;;;;;5.42;4.03;;;;;;;16.29;42.55;101797.49;1749641;82;21568;-63
2022/03/22 06:35:31;;;;;;;6.03;4.78;;;;;;;16.31;42.54;101803.55;1749432;82;21049;-64
2022/03/22 06:37:59;;;;;;;5.10;4.15;;;;;;;16.31;42.57;101805.72;1749448;82;22147;-64
2022/03/22 06:40:30;;;;;;;5.65;4.45;;;;;;;16.33;42.58;101802.05;1749149;82;21007;-63
2022/03/22 06:42:58;;;;;;;6.60;4.70;;;;;;;16.33;42.59;101806.91;1749309;82;21080;-63
2022/03/22 06:45:24;;;;;;;4.83;4.08;;;;;;;16.34;42.63;101802.38;1757428;80;21060;-66
2022/03/22 06:47:52;;;;;;;4.90;4.25;;;;;;;16.36;42.63;101807.09;1772183;80;21023;-64
2022/03/22 06:50:19;;;;;;;5.47;4.17;;;;;;;16.37;42.64;101814.98;1780123;80;21227;-64
2022/03/22 06:52:47;;;;;;;5.33;3.95;;;;;;;16.39;42.66;101816.17;1780195;80;21066;-64
2022/03/22 06:55:16;;;;;;;5.83;4.28;;;;;;;16.42;42.67;101815.88;1780199;80;21050;-64
2022/03/22 06:57:42;;;;;;;5.20;4.40;;;;;;;16.42;42.67;101819.91;1780423;80;20998;-64
2022/03/22 07:00:11;;;;;;;5.37;4.17;;;;;;;16.43;42.68;101814.86;1780349;80;21025;-63
2022/03/22 07:02:39;;;;;;;5.55;5.00;;;;;;;16.45;42.66;101818.23;1772237;80;21105;-64
2022/03/22 07:05:11;;;;;;;4.55;3.98;;;;;;;16.46;42.69;101822.61;1749178;82;21505;-64
2022/03/22 07:07:38;;;;;;;5.85;4.03;;;;;;;16.48;42.67;101819.27;1751138;80;21219;-64
2022/03/22 07:10:08;;;;;;;5.05;3.85;;;;;;;16.49;42.68;101827.64;1754697;81;21029;-64
2022/03/22 07:12:54;;;;;;;4.72;4.22;;;;;;;16.50;42.69;101823.47;1754630;81;21061;-64
2022/03/22 07:15:30;;;;;;;4.62;3.92;;;;;;;16.53;42.68;101822.81;1754624;81;21456;-64
2022/03/22 07:17:58;;;;;;;5.85;4.67;;;;;;;16.55;42.68;101827.52;1754978;81;21072;-62
2022/03/22 07:20:25;;;;;;;4.95;4.12;;;;;;;16.56;42.67;101823.34;1755598;80;21525;-63
2022/03/22 07:22:52;;;;;;;5.35;4.00;;;;;;;16.58;42.69;101820.01;1754707;81;21454;-64
2022/03/22 07:25:19;;;;;;;5.25;4.05;;;;;;;16.59;42.69;101815.00;1754528;81;21089;-63
2022/03/22 07:27:45;;;;;;;5.20;4.20;;;;;;;16.61;42.65;101820.18;1755578;80;21305;-64
2022/03/22 07:30:14;;;;;;;4.90;4.20;;;;;;;16.63;42.66;101819.05;1785630;80;21486;-64
2022/03/22 07:32:42;;;;;;;5.08;4.45;;;;;;;16.66;42.65;101816.53;1785633;80;21455;-65
2022/03/22 07:35:09;;;;;;;5.50;4.90;;;;;;;16.68;42.62;101820.73;1785693;79;21005;-64
2022/03/22 07:37:36;;;;;;;4.75;4.25;;;;;;;16.70;42.62;101816.05;1784862;80;21041;-63
2022/03/22 07:40:08;;;;;;;4.78;4.12;;;;;;;16.73;42.62;101810.02;1786198;80;21263;-64
2022/03/22 07:42:36;;;;;;;6.53;4.90;;;;;;;16.75;42.61;101810.73;1785904;79;21514;-65
2022/03/22 07:45:07;;;;;;;4.65;4.15;;;;;;;16.77;42.56;101812.25;1785924;80;21557;-64
2022/03/22 07:47:34;;;;;;;4.58;4.08;;;;;;;16.79;42.61;101814.28;1785409;80;21054;-64
2022/03/22 07:52:58;;;;;;;5.50;4.55;;;;;;;16.84;42.65;101820.05;1769999;79;21091;-64
2022/03/22 07:55:26;;;;;;;4.85;4.25;;;;;;;16.87;42.61;101818.38;1785557;80;21038;-64
2022/03/22 07:57:53;;;;;;;4.58;3.77;;;;;;;16.89;42.67;101816.37;1785796;80;21002;-64
2022/03/22 08:00:20;;;;;;;5.83;4.42;;;;;;;16.92;42.65;101819.73;1785755;80;21021;-64
2022/03/22 08:02:55;;;;;;;6.75;4.50;;;;;;;16.95;42.67;101812.72;1785790;80;21029;-64
2022/03/22 08:05:23;;;;;;;5.53;4.37;;;;;;;16.96;42.71;101813.05;1784941;80;21245;-66
2022/03/22 08:07:51;;;;;;;5.70;4.83;;;;;;;16.98;42.73;101814.59;1783984;79;21534;-64
2022/03/22 08:10:18;;;;;;;5.08;4.58;;;;;;;17.01;42.70;101818.79;1779138;80;21471;-64
2022/03/22 08:12:46;;;;;;;5.25;3.95;;;;;;;17.04;42.72;101814.45;1780245;80;21006;-64
2022/03/22 08:15:13;;;;;;;4.17;3.77;;;;;;;17.05;42.69;101812.92;1780245;80;21013;-65
2022/03/22 08:17:40;;;;;;;5.12;4.28;;;;;;;17.07;42.73;101808.27;1780415;80;21234;-64
2022/03/22 08:20:09;;;;;;;5.42;4.35;;;;;;;17.11;42.71;101812.79;1780425;80;20982;-64
2022/03/22 08:22:50;;;;;;;5.08;3.83;;;;;;;17.13;42.68;101813.47;1780384;80;20998;-64
2022/03/22 08:25:23;;;;;;;5.12;4.03;;;;;;;17.16;42.66;101810.98;1780303;80;21010;-65
2022/03/22 08:27:53;;;;;;;4.33;3.58;;;;;;;17.18;42.64;101808.47;1760097;80;21466;-65
2022/03/22 08:30:21;;;;;;;6.30;4.17;;;;;;;17.22;42.61;101813.02;1780246;80;21199;-64
2022/03/22 08:32:50;;;;;;;4.55;3.98;;;;;;;17.24;42.61;101813.19;1780259;80;21014;-63
2022/03/22 08:35:18;;;;;;;5.17;4.05;;;;;;;17.26;42.58;101809.00;1780394;80;21034;-63
2022/03/22 08:37:45;;;;;;;5.75;4.15;;;;;;;17.29;42.55;101803.32;1780623;80;21010;-64
2022/03/22 08:40:16;;;;;;;4.80;4.10;;;;;;;17.31;42.51;101806.69;1780230;80;21002;-64
2022/03/22 08:42:44;;;;;;;4.67;3.85;;;;;;;17.34;42.48;101807.69;1780252;80;21194;-64
2022/03/22 08:45:12;;;;;;;5.33;4.17;;;;;;;17.37;42.46;101804.69;1779150;80;21494;-64
2022/03/22 08:47:40;;;;;;;4.85;3.90;;;;;;;17.41;42.46;101803.35;1780390;80;21014;-64
2022/03/22 08:50:11;;;;;;;5.08;4.00;;;;;;;17.43;42.45;101801.34;1780299;80;21030;-64
2022/03/22 08:52:38;;;;;;;4.92;4.00;;;;;;;17.48;42.38;101803.53;1780683;80;20982;-63
2022/03/22 08:55:07;;;;;;;5.10;4.28;;;;;;;17.52;42.38;101802.70;1780261;80;21883;-63
2022/03/22 08:57:35;;;;;;;5.15;3.92;;;;;;;17.54;42.35;101798.00;1769367;80;21049;-63
2022/03/22 09:00:09;;;;;;;4.53;4.08;;;;;;;17.60;42.35;101802.75;1775099;80;21014;-64
2022/03/22 09:02:42;;;;;;;4.00;3.65;;;;;;;17.63;42.33;101795.69;1759130;80;21014;-64
2022/03/22 09:07:58;;;;;;;4.55;3.83;;;;;;;17.69;42.36;101794.54;1749356;80;21142;-65
2022/03/22 09:10:29;;;;;;;5.53;4.45;;;;;;;17.74;42.39;101792.69;1749308;82;21506;-64
2022/03/22 09:12:57;;;;;;;5.30;4.05;;;;;;;17.78;42.44;101787.83;1749480;82;21108;-64
2022/03/22 09:15:28;;;;;;;4.67;4.00;;;;;;;17.84;42.47;101788.53;1749349;82;21085;-65
2022/03/22 09:17:56;;;;;;;5.00;4.50;;;;;;;17.89;42.52;101786.20;1749463;82;21518;-64
2022/03/22 09:20:23;;;;;;;5.35;4.60;;;;;;;17.93;42.52;101782.67;1750095;80;22107;-64
2022/03/22 09:22:51;;;;;;;4.40;3.80;;;;;;;17.99;42.53;101780.66;1749295;82;21006;-65
2022/03/22 09:25:18;;;;;;;4.20;3.72;;;;;;;18.03;42.60;101785.52;1749281;82;21095;-64
2022/03/22 09:27:45;;;;;;;4.20;3.80;;;;;;;18.09;42.58;101782.67;1760152;80;21026;-64
2022/03/22 09:30:12;;;;;;;4.87;3.92;;;;;;;18.17;42.69;101783.17;1780318;80;21089;-64
2022/03/22 09:32:41;;;;;;;4.10;3.62;;;;;;;18.23;42.74;101781.15;1780318;80;21226;-64
2022/03/22 09:35:10;;;;;;;5.58;4.05;;;;;;;18.29;42.76;101777.78;1778655;80;21510;-64
2022/03/22 09:37:38;;;;;;;5.15;4.08;;;;;;;18.35;42.72;101776.27;1749293;82;21521;-63
2022/03/22 09:40:06;;;;;;;4.65;3.67;;;;;;;18.43;42.71;101781.66;1749303;82;21109;-64
2022/03/22 09:42:33;;;;;;;5.05;4.00;;;;;;;18.49;42.67;101776.94;1749260;82;21553;-62
2022/03/22 09:45:00;;;;;;;5.15;4.10;;;;;;;18.57;42.64;101778.26;1749297;82;22062;-65
2022/03/22 09:47:28;;;;;;;4.50;3.92;;;;;;;18.64;42.61;101767.14;1749206;82;21081;-64
2022/03/22 09:49:55;;;;;;;5.08;4.08;;;;;;;18.72;42.58;101772.19;1749445;82;21069;-62
2022/03/22 09:52:22;;;;;;;4.70;3.95;;;;;;;18.80;42.57;101759.55;1750257;80;21030;-65
2022/03/22 09:54:50;;;;;;;4.15;3.60;;;;;;;18.89;42.54;101763.56;1749411;82;21009;-63
2022/03/22 09:57:17;;;;;;;3.65;3.35;;;;;;;18.98;42.49;101761.17;1749250;82;21255;-64
2022/03/22 09:59:45;;;;;;;3.80;3.50;;;;;;;19.07;42.44;101765.52;1749266;82;21109;-64
2022/03/22 10:02:12;;;;;;;5.33;4.05;;;;;;;19.15;42.43;101764.13;1750261;80;21010;-64
2022/03/22 10:04:42;;;;;;;5.33;3.80;;;;;;;19.24;42.38;101766.30;1779524;80;21085;-64
2022/03/22 10:07:18;;;;;;;3.80;3.40;;;;;;;19.33;42.36;101757.64;1780412;79;21521;-64
2022/03/22 10:09:55;;;;;;;4.22;3.80;;;;;;;19.40;42.33;101752.72;1774715;80;20998;-63
2022/03/22 10:12:30;;;;;;;3.42;2.95;;;;;;;19.51;42.28;101763.62;1754467;81;21517;-64
2022/03/22 10:15:13;;;;;;;4.00;3.42;;;;;;;19.60;42.27;101756.30;1754567;81;21231;-64
2022/03/22 10:17:43;;;;;;;;;;;;;;;19.69;42.25;101756.58;1757202;81;21422;-64
2022/03/22 10:20:22;;;;;;;3.37;3.08;;;;;;;19.80;42.24;101758.07;1754668;81;20170;-64
2022/03/22 10:22:58;;;;;;;3.83;3.52;;;;;;;19.88;42.22;101749.91;1754989;81;21097;-64
2022/03/22 10:25:25;;;;;;;4.33;3.75;;;;;;;19.97;42.18;101747.97;1754545;81;21041;-64
2022/03/22 10:27:56;;;;;;;4.20;3.67;;;;;;;20.07;42.15;101748.58;1767829;80;21049;-64
2022/03/22 10:30:22;;;;;;;4.97;3.72;;;;;;;20.17;42.13;101745.63;1785934;79;22032;-64
2022/03/22 10:32:52;;;;;;;3.95;3.33;;;;;;;20.27;42.10;101744.02;1785810;80;21061;-64
2022/03/22 10:35:31;;;;;;;3.62;3.33;;;;;;;20.36;42.08;101745.62;1785798;80;21238;-64
2022/03/22 10:38:03;;;;;;;4.42;3.60;;;;;;;20.47;42.03;101732.16;1785757;79;21523;-64
2022/03/22 10:40:41;;;;;;;3.87;3.35;;;;;;;20.57;41.99;101740.33;1785624;80;21030;-64
2022/03/22 10:43:18;;;;;;;3.35;3.05;;;;;;;20.67;41.93;101740.56;1784391;80;20990;-64
2022/03/22 10:45:56;;;;;;;3.92;3.52;;;;;;;20.77;41.90;101733.05;1754976;81;21077;-64
2022/03/22 10:48:27;;;;;;;3.15;2.80;;;;;;;20.87;41.84;101724.13;1754644;81;21786;-63
2022/03/22 10:50:59;;;;;;;3.85;3.50;;;;;;;20.98;41.77;101721.48;1754974;81;21847;-64
2022/03/22 10:53:28;;;;;;;3.55;3.25;;;;;;;21.07;41.72;101718.97;1754640;81;21041;-63
2022/03/22 10:55:57;;;;;;;5.55;3.40;;;;;;;21.18;41.67;101717.66;1754518;81;21586;-64
2022/03/22 10:58:27;;;;;;;3.83;3.42;;;;;;;21.29;41.63;101710.41;1754539;81;21061;-63
2022/03/22 11:00:55;;;;;;;3.17;2.87;;;;;;;21.38;41.60;101709.27;1755726;80;22881;-64
2022/03/22 11:03:22;;;;;;;3.65;2.83;;;;;;;21.50;41.56;101704.70;1754559;81;21493;-63
2022/03/22 11:05:53;;;;;;;4.25;3.30;;;;;;;21.60;41.52;101697.13;1754607;81;21065;-63
2022/03/22 11:08:25;;;;;;;3.33;3.00;;;;;;;21.71;41.44;101697.97;1756781;80;21088;-63
2022/03/22 11:10:55;;;;;;;3.85;3.33;;;;;;;21.82;41.41;101703.34;1780160;80;21029;-64
2022/03/22 11:13:23;;;;;;;3.58;3.20;;;;;;;21.93;41.36;101688.47;1780070;80;22109;-64
2022/03/22 11:15:50;;;;;;;4.03;3.60;;;;;;;22.03;41.32;101685.42;1780083;80;20978;-63
2022/03/22 11:18:20;;;;;;;3.12;2.83;;;;;;;22.14;41.27;101680.82;1763674;80;21014;-63
2022/03/22 11:20:51;;;;;;;3.35;2.87;;;;;;;22.24;41.24;101679.95;1749333;82;21518;-63
2022/03/22 11:23:23;;;;;;;3.05;2.75;;;;;;;22.35;41.19;101684.02;1749465;82;21058;-64
2022/03/22 11:25:49;;;;;;;3.02;2.80;;;;;;;22.47;41.21;101678.88;1749251;82;21233;-63
2022/03/22 11:28:19;;;;;;;3.08;2.77;;;;;;;22.57;41.14;101674.74;1766331;80;21228;-64
2022/03/22 11:30:46;;;;;;;3.40;2.90;;;;;;;22.67;41.10;101670.31;1780251;80;21006;-64
2022/03/22 11:35:28;;;;;;;3.47;3.17;;;;;;;22.95;41.15;101664.80;1849618;76;22560;-64
2022/03/22 11:38:00;;;;;;;3.45;2.98;;;;;;;23.03;40.99;101667.05;1794125;80;21012;-65
2022/03/22 11:43:13;;;;;;;2.87;2.58;;;;;;;23.27;40.81;101658.34;1794004;80;20909;-64
2022/03/22 11:45:50;;;;;;;3.10;2.80;;;;;;;23.40;40.69;101659.41;1794002;80;20939;-63
2022/03/22 11:48:18;;;;;;;3.12;2.75;;;;;;;23.51;40.61;101658.28;1794026;80;21012;-64
2022/03/22 11:50:45;;;;;;;2.60;2.37;;;;;;;23.63;40.52;101651.70;1794008;79;21018;-63
2022/03/22 11:53:20;;;;;;;2.50;2.30;;;;;;;23.75;40.41;101654.63;1795097;78;21244;-64
2022/03/22 11:55:53;;;;;;;2.72;2.52;;;;;;;23.88;40.33;101653.30;1794075;80;20969;-63
2022/03/22 11:58:21;;;;;;;;;;;;;;;24.01;40.21;101647.03;1796641;80;20986;-64
2022/03/22 12:01:00;;;;;;;2.70;2.50;;;;;;;24.17;40.08;101642.20;1800251;79;20177;-65
2022/03/22 12:03:35;;;;;;;3.40;2.85;;;;;;;24.31;39.97;101650.08;1794046;79;21029;-64
2022/03/22 12:06:11;;;;;;;2.92;2.62;;;;;;;24.47;39.83;101642.02;1794060;80;21890;-64
2022/03/22 12:08:38;;;;;;;2.80;2.60;;;;;;;24.64;39.67;101641.02;1794984;78;20982;-65